createdAt,value
2022-10-10T00:01:55.859Z,24.39
2022-10-10T00:04:22.346Z,24.35
2022-10-10T00:06:49.199Z,24.33
2022-10-10T00:09:15.702Z,24.30
2022-10-10T00:11:42.203Z,24.29
2022-10-10T00:14:08.685Z,24.26
2022-10-10T00:16:35.139Z,24.25
2022-10-10T00:19:01.628Z,24.22
2022-10-10T00:21:28.081Z,24.20
2022-10-10T00:23:54.546Z,24.18
2022-10-10T00:26:21.121Z,24.15
2022-10-10T00:28:47.906Z,24.15
2022-10-10T00:31:14.366Z,24.09
2022-10-10T00:33:40.843Z,24.10
2022-10-10T00:36:07.717Z,24.06
2022-10-10T00:38:34.236Z,24.04
2022-10-10T00:41:00.746Z,24.04
2022-10-10T00:43:27.464Z,24.01
2022-10-10T00:45:54.016Z,24.00
2022-10-10T00:48:29.166Z,23.99
2022-10-10T00:50:58.382Z,23.95
2022-10-10T00:53:30.949Z,23.93
2022-10-10T00:55:57.403Z,23.90
2022-10-10T00:58:23.857Z,23.88
2022-10-10T01:00:50.555Z,23.85
2022-10-10T01:03:17.045Z,23.85
2022-10-10T01:05:43.564Z,23.83
2022-10-10T01:08:11.047Z,23.79
2022-10-10T01:11:08.894Z,23.75
2022-10-10T01:13:50.465Z,23.74
2022-10-10T01:16:35.164Z,23.71
2022-10-10T01:19:04.522Z,23.69
2022-10-10T01:22:07.818Z,23.66
2022-10-10T01:24:46.252Z,23.66
2022-10-10T01:27:33.960Z,23.63
2022-10-10T01:30:14.805Z,23.63
2022-10-10T01:32:53.681Z,23.61
2022-10-10T01:35:28.959Z,23.59
2022-10-10T01:38:30.728Z,23.58
2022-10-10T01:41:05.813Z,23.56
2022-10-10T01:43:32.359Z,23.53
2022-10-10T01:45:58.828Z,23.53
2022-10-10T01:48:29.266Z,23.52
2022-10-10T01:51:35.853Z,23.50
2022-10-10T01:54:43.861Z,23.50
2022-10-10T01:57:24.227Z,23.47
2022-10-10T02:00:08.189Z,23.45
2022-10-10T02:02:46.124Z,23.44
2022-10-10T02:05:21.814Z,23.42
2022-10-10T02:07:51.667Z,23.39
2022-10-10T02:10:23.042Z,23.39
2022-10-10T02:12:49.970Z,23.37
2022-10-10T02:15:19.127Z,23.35
2022-10-10T02:17:45.951Z,23.33
2022-10-10T02:20:12.883Z,23.31
2022-10-10T02:22:41.202Z,23.29
2022-10-10T02:25:07.951Z,23.29
2022-10-10T02:27:43.568Z,23.25
2022-10-10T02:30:10.461Z,23.25
2022-10-10T02:32:57.196Z,23.22
2022-10-10T02:35:25.183Z,23.21
2022-10-10T02:37:51.977Z,23.20
2022-10-10T02:40:21.588Z,23.17
2022-10-10T02:42:49.021Z,23.16
2022-10-10T02:45:15.865Z,23.14
2022-10-10T02:47:42.337Z,23.14
2022-10-10T02:50:08.935Z,23.14
2022-10-10T02:52:35.404Z,23.11
2022-10-10T02:55:01.881Z,23.10
2022-10-10T02:57:28.345Z,23.09
2022-10-10T02:59:54.826Z,23.08
2022-10-10T03:02:21.267Z,23.05
2022-10-10T03:04:47.729Z,23.05
2022-10-10T03:07:14.229Z,23.03
2022-10-10T03:09:40.691Z,23.02
2022-10-10T03:12:07.163Z,23.01
2022-10-10T03:14:33.662Z,22.97
2022-10-10T03:17:00.686Z,22.97
2022-10-10T03:19:27.146Z,22.95
2022-10-10T03:21:53.595Z,22.93
2022-10-10T03:24:20.547Z,22.91
2022-10-10T03:26:47.005Z,22.88
2022-10-10T03:29:13.505Z,22.88
2022-10-10T03:31:39.961Z,22.86
2022-10-10T03:34:06.496Z,22.85
2022-10-10T03:36:33.023Z,22.82
2022-10-10T03:38:59.501Z,22.82
2022-10-10T03:41:25.971Z,22.81
2022-10-10T03:43:52.480Z,22.79
2022-10-10T03:46:18.930Z,22.78
2022-10-10T03:48:45.386Z,22.77
2022-10-10T03:51:12.167Z,22.77
2022-10-10T03:53:38.720Z,22.76
2022-10-10T03:56:05.775Z,22.76
2022-10-10T03:58:32.245Z,22.76
2022-10-10T04:01:00.188Z,22.73
2022-10-10T04:03:26.760Z,22.74
2022-10-10T04:05:53.319Z,22.73
2022-10-10T04:08:19.858Z,22.72
2022-10-10T04:10:50.359Z,22.72
2022-10-10T04:13:16.873Z,22.70
2022-10-10T04:15:43.363Z,22.68
2022-10-10T04:18:09.835Z,22.68
2022-10-10T04:20:36.295Z,22.67
2022-10-10T04:23:02.803Z,22.68
2022-10-10T04:25:29.344Z,22.67
2022-10-10T04:28:00.680Z,22.66
2022-10-10T04:30:29.468Z,22.64
2022-10-10T04:32:55.924Z,22.64
2022-10-10T04:35:22.403Z,22.63
2022-10-10T04:37:48.861Z,22.61
2022-10-10T04:40:15.385Z,22.60
2022-10-10T04:42:42.167Z,22.60
2022-10-10T04:45:08.970Z,22.59
2022-10-10T04:47:35.429Z,22.57
2022-10-10T04:50:01.885Z,22.57
2022-10-10T04:52:28.369Z,22.55
2022-10-10T04:54:55.171Z,22.52
2022-10-10T04:57:21.993Z,22.52
2022-10-10T04:59:48.471Z,22.50
2022-10-10T05:02:14.928Z,22.49
2022-10-10T05:04:41.405Z,22.48
2022-10-10T05:07:08.186Z,22.47
2022-10-10T05:09:35.771Z,22.45
2022-10-10T05:12:02.235Z,22.46
2022-10-10T05:14:28.823Z,22.44
2022-10-10T05:16:55.286Z,22.43
2022-10-10T05:19:22.122Z,22.42
2022-10-10T05:21:48.674Z,22.41
2022-10-10T05:24:15.147Z,22.38
2022-10-10T05:26:43.382Z,22.38
2022-10-10T05:29:09.956Z,22.39
2022-10-10T05:31:36.442Z,22.39
2022-10-10T05:34:03.061Z,22.42
2022-10-10T05:36:29.534Z,22.42
2022-10-10T05:38:56.140Z,22.44
2022-10-10T05:41:22.927Z,22.51
2022-10-10T05:43:49.397Z,22.51
2022-10-10T05:46:15.866Z,22.51
2022-10-10T05:48:42.416Z,22.52
2022-10-10T05:51:08.870Z,22.50
2022-10-10T05:53:35.332Z,22.50
2022-10-10T05:56:02.092Z,22.49
2022-10-10T05:58:28.571Z,22.46
2022-10-10T06:00:55.068Z,22.45
2022-10-10T06:03:21.571Z,22.49
2022-10-10T06:05:50.608Z,22.49
2022-10-10T06:08:17.066Z,22.47
2022-10-10T06:10:45.052Z,22.47
2022-10-10T06:13:12.842Z,22.47
2022-10-10T06:15:39.852Z,22.47
2022-10-10T06:18:06.494Z,22.47
2022-10-10T06:20:37.161Z,22.49
2022-10-10T06:23:03.956Z,22.51
2022-10-10T06:25:40.064Z,22.53
2022-10-10T06:28:07.642Z,22.53
2022-10-10T06:30:35.149Z,22.54
2022-10-10T06:33:01.839Z,22.58
2022-10-10T06:35:28.452Z,22.64
2022-10-10T06:37:54.924Z,22.62
2022-10-10T06:40:21.739Z,22.67
2022-10-10T06:42:48.334Z,22.76
2022-10-10T06:45:15.062Z,22.79
2022-10-10T06:47:42.048Z,22.82
2022-10-10T06:50:08.863Z,22.87
2022-10-10T06:52:35.323Z,22.90
2022-10-10T06:55:01.795Z,22.91
2022-10-10T06:57:28.316Z,22.93
2022-10-10T06:59:54.876Z,22.97
2022-10-10T07:02:23.069Z,23.12
2022-10-10T07:04:49.560Z,23.49
2022-10-10T07:07:16.043Z,23.71
2022-10-10T07:09:42.516Z,23.70
2022-10-10T07:12:09.196Z,23.62
2022-10-10T07:14:35.685Z,23.40
2022-10-10T07:17:03.108Z,23.21
2022-10-10T07:19:29.626Z,23.16
2022-10-10T07:21:56.103Z,23.18
2022-10-10T07:24:22.682Z,23.19
2022-10-10T07:26:49.918Z,23.23
2022-10-10T07:29:16.471Z,23.30
2022-10-10T07:31:42.927Z,23.36
2022-10-10T07:34:09.429Z,23.42
2022-10-10T07:36:35.909Z,23.48
2022-10-10T07:39:02.402Z,23.55
2022-10-10T07:41:28.929Z,23.64
2022-10-10T07:43:56.016Z,23.66
2022-10-10T07:46:22.823Z,23.69
2022-10-10T07:48:49.346Z,23.76
2022-10-10T07:51:15.929Z,23.83
2022-10-10T07:53:44.410Z,23.93
2022-10-10T07:56:11.017Z,23.99
2022-10-10T07:58:37.549Z,23.99
2022-10-10T08:01:04.600Z,24.04
2022-10-10T08:03:31.121Z,24.10
2022-10-10T08:05:57.655Z,24.13
2022-10-10T08:08:24.150Z,24.10
2022-10-10T08:10:50.757Z,22.70
2022-10-10T08:13:17.314Z,23.41
2022-10-10T08:15:43.771Z,23.91
2022-10-10T08:18:10.231Z,24.18
2022-10-10T08:20:36.695Z,24.19
2022-10-10T08:23:03.162Z,24.34
2022-10-10T08:25:29.921Z,24.44
2022-10-10T08:27:56.389Z,24.50
2022-10-10T08:30:22.945Z,24.48
2022-10-10T08:32:49.914Z,24.60
2022-10-10T08:35:16.586Z,24.56
2022-10-10T08:37:43.057Z,24.30
2022-10-10T08:40:13.069Z,24.34
2022-10-10T08:42:52.822Z,24.34
2022-10-10T08:45:25.001Z,24.41
2022-10-10T08:47:54.621Z,24.51
2022-10-10T08:50:23.740Z,24.56
2022-10-10T08:52:53.977Z,24.60
2022-10-10T08:55:24.577Z,24.62
2022-10-10T08:57:57.829Z,24.64
2022-10-10T09:00:25.104Z,24.64
2022-10-10T09:02:54.383Z,24.76
2022-10-10T09:05:40.345Z,24.83
2022-10-10T09:08:15.626Z,24.67
2022-10-10T09:11:01.094Z,24.38
2022-10-10T09:13:35.911Z,24.35
2022-10-10T09:16:07.456Z,24.61
2022-10-10T09:18:59.468Z,24.56
2022-10-10T09:21:28.254Z,24.30
2022-10-10T09:24:02.885Z,24.05
2022-10-10T09:26:32.604Z,24.07
2022-10-10T09:29:15.787Z,24.21
2022-10-10T09:31:50.972Z,24.03
2022-10-10T09:34:37.787Z,23.85
2022-10-10T09:37:13.751Z,23.93
2022-10-10T09:39:45.619Z,23.90
2022-10-10T09:42:14.033Z,23.92
2022-10-10T09:44:40.732Z,24.02
2022-10-10T09:47:07.231Z,23.96
2022-10-10T09:49:35.055Z,23.95
2022-10-10T09:52:03.572Z,24.03
2022-10-10T09:54:30.086Z,24.02
2022-10-10T09:56:58.524Z,23.85
2022-10-10T09:59:37.738Z,24.08
2022-10-10T10:02:13.109Z,24.27
2022-10-10T10:04:39.613Z,24.43
2022-10-10T10:07:16.025Z,24.29
2022-10-10T10:09:44.078Z,24.22
2022-10-10T10:12:10.663Z,24.26
2022-10-10T10:14:37.784Z,24.07
2022-10-10T10:17:13.884Z,24.12
2022-10-10T10:19:42.631Z,24.17
2022-10-10T10:22:54.181Z,24.26
2022-10-10T10:25:31.967Z,24.19
2022-10-10T10:28:10.903Z,24.11
2022-10-10T10:30:40.862Z,24.09
2022-10-10T10:33:26.907Z,24.18
2022-10-10T10:36:02.586Z,24.25
2022-10-10T10:38:40.744Z,24.18
2022-10-10T10:41:10.039Z,23.89
2022-10-10T10:43:47.469Z,23.96
2022-10-10T10:46:35.585Z,24.06
2022-10-10T10:49:24.654Z,23.97
2022-10-10T10:52:17.276Z,23.97
2022-10-10T10:55:02.958Z,24.02
2022-10-10T10:58:04.692Z,24.15
2022-10-10T11:01:23.641Z,24.25
2022-10-10T11:05:15.858Z,24.12
2022-10-10T11:07:25.919Z,24.11
2022-10-10T11:09:58.366Z,24.19
2022-10-10T11:12:43.874Z,24.07
2022-10-10T11:15:21.176Z,24.13
2022-10-10T11:17:55.014Z,24.16
2022-10-10T11:20:36.810Z,24.23
2022-10-10T11:23:20.469Z,24.20
2022-10-10T11:25:47.614Z,24.26
2022-10-10T11:28:45.002Z,24.26
2022-10-10T11:31:18.578Z,24.22
2022-10-10T11:33:47.142Z,24.21
2022-10-10T11:36:24.001Z,24.32
2022-10-10T11:39:15.542Z,24.24
2022-10-10T11:41:55.180Z,24.30
2022-10-10T11:44:39.760Z,24.29
2022-10-10T11:47:27.040Z,24.26
2022-10-10T11:50:02.504Z,24.11
2022-10-10T11:52:50.071Z,24.19
2022-10-10T11:55:45.983Z,24.22
2022-10-10T11:58:12.620Z,24.34
2022-10-10T12:00:50.478Z,24.38
2022-10-10T12:03:16.950Z,24.45
2022-10-10T12:05:49.011Z,24.36
2022-10-10T12:08:26.193Z,24.32
2022-10-10T12:10:54.908Z,24.23
2022-10-10T12:13:40.728Z,24.32
2022-10-10T12:16:15.394Z,24.36
2022-10-10T12:18:44.837Z,24.39
2022-10-10T12:21:16.043Z,24.35
2022-10-10T12:24:08.219Z,24.44
2022-10-10T12:26:52.878Z,24.33
2022-10-10T12:29:50.213Z,24.42
2022-10-10T12:32:20.405Z,24.46
2022-10-10T12:34:56.734Z,24.36
2022-10-10T12:37:35.784Z,24.38
2022-10-10T12:40:05.268Z,24.21
2022-10-10T12:42:37.153Z,24.13
2022-10-10T12:45:04.292Z,24.22
2022-10-10T12:48:03.871Z,24.19
2022-10-10T12:50:36.408Z,24.27
2022-10-10T12:53:23.443Z,24.13
2022-10-10T12:55:51.520Z,24.17
2022-10-10T12:58:28.178Z,24.27
2022-10-10T13:00:55.992Z,24.26
2022-10-10T13:03:32.917Z,24.25
2022-10-10T13:06:04.149Z,24.22
2022-10-10T13:08:32.187Z,24.18
2022-10-10T13:11:03.342Z,24.08
2022-10-10T13:13:30.231Z,24.11
2022-10-10T13:15:58.242Z,24.10
2022-10-10T13:18:37.962Z,24.05
2022-10-10T13:21:08.214Z,23.95
2022-10-10T13:23:41.173Z,24.01
2022-10-10T13:26:15.306Z,24.04
2022-10-10T13:28:42.826Z,23.96
2022-10-10T13:31:12.655Z,23.99
2022-10-10T13:33:39.244Z,24.05
2022-10-10T13:36:07.735Z,24.08
2022-10-10T13:38:34.308Z,24.08
2022-10-10T13:41:03.269Z,24.09
2022-10-10T13:43:29.984Z,24.01
2022-10-10T13:45:57.675Z,24.01
2022-10-10T13:48:37.577Z,23.98
2022-10-10T13:51:09.347Z,23.96
2022-10-10T13:53:43.052Z,23.93
2022-10-10T13:56:31.497Z,23.92
2022-10-10T13:59:10.403Z,23.88
2022-10-10T14:01:39.276Z,23.83
2022-10-10T14:04:44.149Z,23.87
2022-10-10T14:07:17.126Z,23.84
2022-10-10T14:10:01.338Z,23.83
2022-10-10T14:12:54.627Z,23.74
2022-10-10T14:15:43.807Z,23.77
2022-10-10T14:18:21.658Z,23.74
2022-10-10T14:20:48.247Z,23.66
2022-10-10T14:23:14.723Z,23.64
2022-10-10T14:25:41.875Z,23.64
2022-10-10T14:28:16.785Z,23.63
2022-10-10T14:30:43.437Z,23.62
2022-10-10T14:33:11.926Z,23.58
2022-10-10T14:35:38.399Z,23.55
2022-10-10T14:38:05.092Z,23.54
2022-10-10T14:40:31.842Z,23.52
2022-10-10T14:42:58.308Z,23.51
2022-10-10T14:45:24.874Z,23.49
2022-10-10T14:47:52.102Z,23.49
2022-10-10T14:50:19.980Z,23.44
2022-10-10T14:52:46.498Z,23.44
2022-10-10T14:55:13.129Z,23.39
2022-10-10T14:57:39.693Z,23.40
2022-10-10T15:00:07.452Z,23.42
2022-10-10T15:02:33.958Z,23.40
2022-10-10T15:05:00.523Z,23.38
2022-10-10T15:07:27.030Z,23.35
2022-10-10T15:12:41.588Z,23.32
2022-10-10T15:15:08.648Z,23.34
2022-10-10T15:17:35.128Z,23.29
2022-10-10T15:20:02.287Z,23.28
2022-10-10T15:22:30.076Z,23.26
2022-10-10T15:24:56.687Z,23.25
2022-10-10T15:27:23.203Z,23.26
2022-10-10T15:29:49.675Z,23.22
2022-10-10T15:32:16.186Z,23.20
2022-10-10T15:34:42.663Z,23.20
2022-10-10T15:37:10.452Z,23.13
2022-10-10T15:39:37.056Z,23.08
2022-10-10T15:42:12.217Z,23.08
2022-10-10T15:44:44.427Z,23.09
2022-10-10T15:47:10.924Z,23.07
2022-10-10T15:49:40.457Z,23.07
2022-10-10T15:52:07.009Z,23.04
2022-10-10T15:54:33.497Z,23.04
2022-10-10T15:56:59.956Z,23.03
2022-10-10T15:59:26.473Z,23.02
2022-10-10T16:01:54.363Z,23.01
2022-10-10T16:04:22.473Z,22.99
2022-10-10T16:06:54.396Z,22.99
2022-10-10T16:09:38.937Z,22.98
2022-10-10T16:12:05.632Z,22.97
2022-10-10T16:14:32.211Z,22.96
2022-10-10T16:17:01.745Z,22.91
2022-10-10T16:19:28.234Z,22.89
2022-10-10T16:21:54.896Z,22.86
2022-10-10T16:24:22.431Z,22.85
2022-10-10T16:26:48.943Z,22.84
2022-10-10T16:29:18.413Z,22.83
2022-10-10T16:31:44.904Z,22.75
2022-10-10T16:34:12.860Z,22.78
2022-10-10T16:36:39.419Z,22.79
2022-10-10T16:39:05.947Z,22.77
2022-10-10T16:41:47.575Z,22.73
2022-10-10T16:44:15.078Z,22.70
2022-10-10T16:46:41.547Z,22.74
2022-10-10T16:49:08.085Z,22.79
2022-10-10T16:51:34.582Z,22.78
2022-10-10T16:54:01.711Z,22.77
2022-10-10T16:56:28.393Z,22.73
2022-10-10T16:58:54.865Z,22.75
2022-10-10T17:01:22.078Z,22.75
2022-10-10T17:03:49.090Z,22.77
2022-10-10T17:06:18.937Z,22.74
2022-10-10T17:08:46.550Z,22.75
2022-10-10T17:11:14.552Z,22.81
2022-10-10T17:13:41.104Z,22.80
2022-10-10T17:16:47.933Z,22.85
2022-10-10T17:18:55.559Z,22.98
2022-10-10T17:21:23.238Z,23.07
2022-10-10T17:23:49.982Z,23.21
2022-10-10T17:26:19.030Z,23.23
2022-10-10T17:28:45.559Z,23.22
2022-10-10T17:31:15.004Z,23.30
2022-10-10T17:33:43.031Z,23.25
2022-10-10T17:36:11.664Z,23.23
2022-10-10T17:38:40.403Z,23.42
2022-10-10T17:41:07.219Z,23.40
2022-10-10T17:43:33.853Z,23.39
2022-10-10T17:46:29.014Z,23.37
2022-10-10T17:48:51.428Z,23.35
2022-10-10T17:51:22.277Z,23.31
2022-10-10T17:53:52.088Z,23.30
2022-10-10T17:56:20.594Z,23.31
2022-10-10T17:58:47.203Z,23.38
2022-10-10T18:01:15.028Z,23.41
2022-10-10T18:03:41.668Z,23.40
2022-10-10T18:06:12.602Z,23.37
2022-10-10T18:08:39.189Z,23.37
2022-10-10T18:11:10.976Z,23.34
2022-10-10T18:13:39.569Z,23.37
2022-10-10T18:16:10.708Z,23.38
2022-10-10T18:18:38.080Z,23.38
2022-10-10T18:21:05.887Z,23.34
2022-10-10T18:23:32.843Z,23.32
2022-10-10T18:26:03.484Z,23.32
2022-10-10T18:28:34.724Z,23.32
2022-10-10T18:31:10.817Z,23.30
2022-10-10T18:33:39.960Z,23.31
2022-10-10T18:36:07.653Z,23.30
2022-10-10T18:38:34.297Z,23.28
2022-10-10T18:41:05.884Z,23.27
2022-10-10T18:43:32.988Z,23.26
2022-10-10T18:46:00.605Z,23.24
2022-10-10T18:48:27.134Z,23.25
2022-10-10T18:51:21.589Z,23.23
2022-10-10T18:53:48.130Z,23.22
2022-10-10T18:56:20.789Z,23.24
2022-10-10T18:58:47.465Z,23.25
2022-10-10T19:01:14.878Z,23.32
2022-10-10T19:03:41.853Z,23.36
2022-10-10T19:06:13.077Z,23.43
2022-10-10T19:08:40.174Z,23.52
2022-10-10T19:11:07.243Z,23.55
2022-10-10T19:13:34.109Z,23.54
2022-10-10T19:16:04.610Z,23.55
2022-10-10T19:18:31.093Z,23.56
2022-10-10T19:21:01.673Z,23.58
2022-10-10T19:23:28.468Z,23.57
2022-10-10T19:25:55.031Z,23.61
2022-10-10T19:28:21.564Z,23.59
2022-10-10T19:30:48.261Z,23.60
2022-10-10T19:33:14.765Z,23.56
2022-10-10T19:35:42.732Z,23.61
2022-10-10T19:38:10.105Z,23.61
2022-10-10T19:40:43.011Z,23.61
2022-10-10T19:43:09.477Z,23.62
2022-10-10T19:45:40.517Z,23.56
2022-10-10T19:48:07.033Z,23.55
2022-10-10T19:50:33.531Z,23.51
2022-10-10T19:53:04.183Z,23.49
2022-10-10T19:55:31.480Z,23.49
2022-10-10T19:57:57.977Z,23.46
2022-10-10T20:00:24.670Z,23.43
2022-10-10T20:02:51.187Z,23.41
2022-10-10T20:05:17.660Z,23.37
2022-10-10T20:07:44.144Z,23.38
2022-10-10T20:10:12.137Z,23.36
2022-10-10T20:12:38.685Z,23.36
2022-10-10T20:15:05.510Z,23.32
2022-10-10T20:17:32.010Z,23.32
2022-10-10T20:19:58.563Z,23.30
2022-10-10T20:22:25.128Z,23.31
2022-10-10T20:24:51.612Z,23.32
2022-10-10T20:27:18.086Z,23.34
2022-10-10T20:29:45.068Z,23.41
2022-10-10T20:32:11.562Z,23.40
2022-10-10T20:34:38.069Z,23.42
2022-10-10T20:37:07.857Z,23.32
2022-10-10T20:39:34.372Z,23.28
2022-10-10T20:42:00.837Z,23.25
2022-10-10T20:44:27.380Z,23.26
2022-10-10T20:46:53.845Z,23.16
2022-10-10T20:49:21.239Z,23.21
2022-10-10T20:51:49.499Z,23.37
2022-10-10T20:54:16.970Z,23.49
2022-10-10T20:56:44.749Z,23.54
2022-10-10T20:59:12.185Z,23.55
2022-10-10T21:01:38.898Z,23.55
2022-10-10T21:04:08.745Z,23.53
2022-10-10T21:06:35.701Z,23.54
2022-10-10T21:09:03.980Z,23.54
2022-10-10T21:11:30.502Z,23.54
2022-10-10T21:13:58.119Z,23.50
2022-10-10T21:16:29.243Z,23.50
2022-10-10T21:18:58.356Z,23.50
2022-10-10T21:21:26.914Z,23.49
2022-10-10T21:23:56.209Z,23.49
2022-10-10T21:26:23.985Z,23.48
2022-10-10T21:28:50.798Z,23.47
2022-10-10T21:31:18.954Z,23.43
2022-10-10T21:33:47.903Z,23.42
2022-10-10T21:36:15.320Z,23.40
2022-10-10T21:38:41.852Z,23.39
2022-10-10T21:41:09.814Z,23.39
2022-10-10T21:43:37.843Z,23.36
2022-10-10T21:46:05.876Z,23.36
2022-10-10T21:48:32.614Z,23.49
2022-10-10T21:50:59.541Z,23.59
2022-10-10T21:53:26.074Z,23.64
2022-10-10T21:55:52.889Z,23.66
2022-10-10T21:58:19.373Z,23.66
2022-10-10T22:00:45.894Z,23.65
2022-10-10T22:03:12.380Z,23.64
2022-10-10T22:05:40.779Z,23.65
2022-10-10T22:08:07.631Z,23.64
2022-10-10T22:10:34.446Z,23.65
2022-10-10T22:13:01.387Z,23.66
2022-10-10T22:15:28.332Z,23.65
2022-10-10T22:17:54.858Z,23.64
2022-10-10T22:20:22.001Z,23.62
2022-10-10T22:22:48.504Z,23.62
2022-10-10T22:25:17.080Z,23.67
2022-10-10T22:27:43.776Z,23.63
2022-10-10T22:30:11.501Z,23.61
2022-10-10T22:32:38.007Z,23.62
2022-10-10T22:35:04.840Z,23.59
2022-10-10T22:37:31.314Z,23.59
2022-10-10T22:39:57.825Z,23.57
2022-10-10T22:42:24.303Z,23.57
2022-10-10T22:44:50.774Z,23.56
2022-10-10T22:47:17.244Z,23.56
2022-10-10T22:49:43.775Z,23.56
2022-10-10T22:52:11.304Z,23.54
2022-10-10T22:54:37.849Z,23.52
2022-10-10T22:57:04.309Z,23.51
2022-10-10T22:59:30.842Z,23.50
2022-10-10T23:01:57.313Z,23.47
2022-10-10T23:04:23.870Z,23.46
2022-10-10T23:06:50.470Z,23.46
2022-10-10T23:09:17.202Z,23.44
2022-10-10T23:11:43.664Z,23.43
2022-10-10T23:14:10.163Z,23.45
2022-10-10T23:16:40.539Z,23.43
2022-10-10T23:19:07.408Z,23.47
2022-10-10T23:21:33.912Z,23.36
2022-10-10T23:24:00.402Z,23.32
2022-10-10T23:26:27.199Z,23.30
2022-10-10T23:28:53.796Z,23.27
2022-10-10T23:31:20.312Z,23.23
2022-10-10T23:33:46.822Z,23.21
2022-10-10T23:36:14.164Z,23.18
2022-10-10T23:38:41.203Z,23.16
2022-10-10T23:41:08.483Z,23.14
2022-10-10T23:43:34.965Z,23.12
2022-10-10T23:46:01.929Z,23.09
2022-10-10T23:48:28.714Z,23.07
2022-10-10T23:50:55.229Z,23.04
2022-10-10T23:53:21.716Z,23.04
2022-10-10T23:55:48.339Z,23.02
2022-10-10T23:58:15.232Z,23.02
